Time;durP1;ratioP1;P1;durP2;ratioP2;P2;SDS_P1;SDS_P2;PMS_P1;PMS_P2;Temp;Humidity;BMP_temperature;BMP_pressure;BME280_temperature;BME280_humidity;BME280_pressure;Samples;Min_cycle;Max_cycle;Signal;HPM_P1;HPM_P2
2023/10/30 00:00:26;;;;;;;5.63;1.48;;;;;;;19.28;44.29;97460.09;5094941;28;20104;-44
2023/10/30 00:02:51;;;;;;;6.07;1.40;;;;;;;19.27;44.23;97469.13;5094914;28;20032;-44
2023/10/30 00:05:17;;;;;;;4.15;1.27;;;;;;;19.29;44.13;97466.19;5094785;28;20030;-44
2023/10/30 00:07:43;;;;;;;2.95;1.05;;;;;;;19.18;44.46;97470.09;5094700;28;20050;-44
2023/10/30 00:10:09;;;;;;;7.20;1.23;;;;;;;19.12;44.90;97472.00;5094671;28;20062;-44
2023/10/30 00:12:35;;;;;;;5.55;1.30;;;;;;;19.09;45.15;97465.38;5093367;28;20020;-44
2023/10/30 00:15:03;;;;;;;4.85;1.20;;;;;;;19.11;45.13;97451.81;5094384;28;20602;-44
2023/10/30 00:17:30;;;;;;;3.30;1.42;;;;;;;19.13;45.19;97460.28;5094419;28;20049;-45
2023/10/30 00:19:56;;;;;;;6.00;1.63;;;;;;;19.12;45.19;97458.72;5094523;28;20490;-44
2023/10/30 00:22:22;;;;;;;8.63;1.58;;;;;;;19.07;45.62;97443.59;5094419;28;20016;-44
2023/10/30 00:24:48;;;;;;;3.80;1.40;;;;;;;19.18;45.42;97446.16;5094392;28;20027;-44
2023/10/30 00:27:16;;;;;;;4.30;1.10;;;;;;;19.16;45.57;97452.53;5092997;28;20142;-44
2023/10/30 00:29:42;;;;;;;3.15;1.38;;;;;;;19.16;45.83;97447.22;5093144;28;20081;-44
2023/10/30 00:32:08;;;;;;;3.08;1.13;;;;;;;19.09;46.11;97438.78;5092952;28;20032;-44
2023/10/30 00:34:34;;;;;;;3.90;1.35;;;;;;;18.96;46.78;97436.84;5094215;28;20389;-44
2023/10/30 00:37:00;;;;;;;5.28;1.20;;;;;;;18.96;46.79;97429.66;5092693;28;20031;-45
2023/10/30 00:39:30;;;;;;;9.18;1.13;;;;;;;19.12;46.56;97432.91;5092750;28;20016;-45
2023/10/30 00:41:55;;;;;;;4.68;1.10;;;;;;;19.13;46.53;97437.13;5094118;28;20470;-44
2023/10/30 00:44:21;;;;;;;3.83;1.20;;;;;;;19.06;46.91;97428.72;5094235;28;20020;-45
2023/10/30 00:46:47;;;;;;;6.40;1.63;;;;;;;19.06;47.08;97428.72;5092643;28;20485;-45
2023/10/30 00:49:12;;;;;;;6.07;1.80;;;;;;;19.14;46.94;97445.94;5093844;28;20032;-45
2023/10/30 00:51:38;;;;;;;8.02;1.50;;;;;;;19.18;47.50;97428.31;5093858;28;20028;-45
2023/10/30 00:54:04;;;;;;;6.45;1.75;;;;;;;19.32;47.46;97426.50;5093834;28;20016;-44
2023/10/30 00:56:29;;;;;;;2.53;0.93;;;;;;;19.49;46.99;97430.53;5092265;28;20505;-45
2023/10/30 00:58:56;;;;;;;4.93;1.25;;;;;;;19.50;46.68;97429.47;5093312;28;20111;-44
2023/10/30 01:01:23;;;;;;;4.25;1.45;;;;;;;19.50;46.89;97440.88;5093256;28;20043;-45
2023/10/30 01:03:48;;;;;;;6.95;1.20;;;;;;;19.41;47.24;97429.31;5093635;28;20410;-45
2023/10/30 01:06:14;;;;;;;8.07;1.70;;;;;;;19.36;47.49;97434.72;5093516;28;20103;-45
2023/10/30 01:08:40;;;;;;;5.90;1.80;;;;;;;19.35;47.85;97431.25;5092435;28;20480;-44
2023/10/30 01:11:06;;;;;;;6.55;1.40;;;;;;;19.44;47.97;97443.94;5093454;28;20040;-45
2023/10/30 01:13:32;;;;;;;5.55;1.45;;;;;;;19.38;47.98;97439.72;5091833;28;20069;-45
2023/10/30 01:15:58;;;;;;;5.85;1.52;;;;;;;19.26;48.28;97437.53;5093315;28;20035;-45
2023/10/30 01:18:24;;;;;;;5.85;1.75;;;;;;;19.25;48.95;97431.38;5091992;28;20031;-44
2023/10/30 01:20:50;;;;;;;8.23;1.50;;;;;;;19.39;48.60;97436.78;5091953;28;20016;-44
2023/10/30 01:23:17;;;;;;;7.15;1.52;;;;;;;19.44;48.71;97425.28;5093243;28;20028;-44
2023/10/30 01:25:44;;;;;;;5.13;1.40;;;;;;;19.48;48.80;97418.31;5091915;28;20059;-44
2023/10/30 01:28:10;;;;;;;9.63;1.58;;;;;;;19.47;48.84;97419.38;5093194;28;20070;-45
2023/10/30 01:30:35;;;;;;;8.65;2.10;;;;;;;19.49;49.08;97419.88;5093080;28;20555;-44
2023/10/30 01:33:01;;;;;;;4.13;1.20;;;;;;;19.56;48.89;97428.31;5093116;28;20111;-44
2023/10/30 01:35:26;;;;;;;6.57;1.30;;;;;;;19.62;48.88;97403.19;5091684;28;20393;-45
2023/10/30 01:37:52;;;;;;;5.22;1.33;;;;;;;19.64;48.33;97398.38;5092910;28;20114;-44
2023/10/30 01:40:18;;;;;;;6.57;1.85;;;;;;;19.52;48.69;97403.34;5091627;28;20028;-45
2023/10/30 01:42:43;;;;;;;5.50;1.50;;;;;;;19.49;48.99;97406.56;5092884;28;20111;-45
2023/10/30 01:45:09;;;;;;;4.80;1.33;;;;;;;19.42;49.56;97400.81;5092817;28;20541;-44
2023/10/30 01:47:36;;;;;;;5.05;1.33;;;;;;;19.45;49.19;97394.94;5091490;28;20035;-44
2023/10/30 01:50:02;;;;;;;6.30;1.60;;;;;;;19.41;49.20;97389.41;5091417;28;20028;-45
2023/10/30 01:52:29;;;;;;;3.72;1.13;;;;;;;19.39;48.99;97374.81;5092635;28;20031;-45
2023/10/30 01:54:57;;;;;;;6.50;1.73;;;;;;;19.31;49.64;97378.91;5091364;28;20502;-44
2023/10/30 01:57:24;;;;;;;5.28;1.17;;;;;;;19.23;49.66;97383.00;5092550;28;20032;-45
2023/10/30 01:59:51;;;;;;;4.45;1.35;;;;;;;19.30;49.56;97367.50;5091293;28;20016;-44
2023/10/30 02:02:23;;;;;;;9.52;1.30;;;;;;;19.30;49.37;97377.34;5091167;28;20435;-44
2023/10/30 02:04:49;;;;;;;10.70;1.65;;;;;;;19.34;49.77;97397.75;5091180;28;20028;-44
2023/10/30 02:07:15;;;;;;;6.78;2.55;;;;;;;19.53;49.61;97403.03;5091069;28;20028;-45
2023/10/30 02:09:41;;;;;;;5.35;1.52;;;;;;;19.56;48.94;97393.72;5091130;28;20024;-45
2023/10/30 02:12:07;;;;;;;10.80;2.30;;;;;;;19.53;49.55;97381.75;5090906;28;20401;-45
2023/10/30 02:14:34;;;;;;;8.68;2.47;;;;;;;19.63;49.45;97382.69;5092079;28;20047;-44
2023/10/30 02:16:59;;;;;;;3.72;1.42;;;;;;;19.63;49.11;97388.78;5092270;28;20027;-44
2023/10/30 02:19:27;;;;;;;3.05;1.02;;;;;;;19.60;49.35;97383.25;5091185;28;20028;-44
2023/10/30 02:21:55;;;;;;;10.88;2.08;;;;;;;19.50;49.61;97386.88;5092186;28;20545;-44
2023/10/30 02:24:22;;;;;;;8.90;1.92;;;;;;;19.42;50.04;97384.84;5090843;28;20221;-44
2023/10/30 02:26:51;;;;;;;7.53;1.65;;;;;;;19.35;50.46;97374.59;5090874;28;20119;-45
2023/10/30 02:29:17;;;;;;;4.50;1.10;;;;;;;19.41;50.45;97372.66;5092111;28;20028;-44
2023/10/30 02:31:44;;;;;;;5.20;1.27;;;;;;;19.42;50.39;97382.19;5092038;28;20024;-45
2023/10/30 02:34:10;;;;;;;2.60;1.15;;;;;;;19.34;50.55;97363.16;5092033;28;20089;-44
2023/10/30 02:36:36;;;;;;;3.97;1.40;;;;;;;19.18;50.83;97372.47;5090590;28;20024;-45
2023/10/30 02:39:03;;;;;;;7.43;2.08;;;;;;;19.05;51.38;97368.63;5091914;28;20032;-45
2023/10/30 02:41:31;;;;;;;3.80;1.33;;;;;;;19.01;51.56;97372.16;5090752;28;20070;-45
2023/10/30 02:43:58;;;;;;;5.85;1.33;;;;;;;18.99;51.79;97366.34;5091934;28;20078;-44
2023/10/30 02:46:24;;;;;;;4.53;1.13;;;;;;;19.02;51.86;97366.56;5091849;28;20397;-44
2023/10/30 02:48:50;;;;;;;6.80;1.60;;;;;;;19.08;51.59;97356.66;5091833;28;20028;-45
2023/10/30 02:51:17;;;;;;;5.65;1.50;;;;;;;19.10;51.57;97363.25;5091865;28;20047;-45
2023/10/30 02:53:42;;;;;;;6.05;1.75;;;;;;;19.10;51.62;97357.16;5090806;28;20314;-45
2023/10/30 02:56:08;;;;;;;6.45;1.20;;;;;;;19.04;51.99;97363.63;5091751;28;20016;-44
2023/10/30 02:58:34;;;;;;;5.57;1.83;;;;;;;19.07;52.05;97355.84;5091776;28;20027;-45
2023/10/30 03:01:00;;;;;;;6.50;1.70;;;;;;;19.14;52.04;97356.28;5091766;28;20095;-44
2023/10/30 03:03:26;;;;;;;3.45;1.10;;;;;;;19.26;51.64;97355.84;5091749;28;20035;-44
2023/10/30 03:05:51;;;;;;;4.80;1.52;;;;;;;19.33;51.21;97350.94;5091728;28;20111;-45
2023/10/30 03:08:17;;;;;;;4.53;1.40;;;;;;;19.36;51.06;97341.59;5090307;28;20035;-44
2023/10/30 03:10:43;;;;;;;4.38;1.38;;;;;;;19.45;50.71;97337.19;5091661;28;20031;-44
2023/10/30 03:13:09;;;;;;;6.55;1.92;;;;;;;19.44;50.71;97350.78;5090302;28;20056;-45
2023/10/30 03:15:35;;;;;;;7.10;1.30;;;;;;;19.33;50.87;97332.31;5091260;28;20063;-44
2023/10/30 03:18:01;;;;;;;8.20;1.83;;;;;;;19.36;50.32;97337.06;5090347;28;20031;-45
2023/10/30 03:20:27;;;;;;;5.53;1.90;;;;;;;19.35;50.41;97342.66;5091633;28;20490;-44
2023/10/30 03:22:53;;;;;;;5.50;1.55;;;;;;;19.36;50.41;97331.75;5092527;28;20030;-44
2023/10/30 03:25:18;;;;;;;7.13;1.45;;;;;;;19.30;50.65;97334.78;5094226;28;20106;-44
2023/10/30 03:27:44;;;;;;;8.38;1.42;;;;;;;19.25;50.57;97330.31;5094148;28;20080;-45
2023/10/30 03:30:10;;;;;;;7.72;1.15;;;;;;;19.27;50.55;97348.66;5094101;28;20078;-44
2023/10/30 03:32:36;;;;;;;8.13;1.38;;;;;;;19.35;50.56;97346.09;5095411;28;20021;-44
2023/10/30 03:35:02;;;;;;;6.43;1.35;;;;;;;19.44;50.08;97327.63;5095279;28;20030;-44
2023/10/30 03:37:28;;;;;;;7.53;1.48;;;;;;;19.47;50.03;97334.22;5095234;28;20020;-44
2023/10/30 03:39:54;;;;;;;3.35;1.20;;;;;;;19.50;50.06;97339.78;5095312;28;20020;-44
2023/10/30 03:42:19;;;;;;;6.22;1.45;;;;;;;19.47;50.12;97334.22;5095118;28;20024;-44
2023/10/30 03:44:45;;;;;;;5.50;1.50;;;;;;;19.42;50.10;97345.75;5095136;28;20027;-45
2023/10/30 03:47:11;;;;;;;5.82;1.48;;;;;;;19.33;50.32;97336.84;5093783;28;20051;-44
2023/10/30 03:49:37;;;;;;;8.07;1.77;;;;;;;19.27;50.64;97344.09;5094982;28;20035;-44
2023/10/30 03:52:03;;;;;;;3.42;1.33;;;;;;;19.19;50.82;97344.78;5093781;28;20025;-44
2023/10/30 03:54:28;;;;;;;8.13;1.80;;;;;;;19.20;50.92;97334.94;5095037;28;20020;-44
2023/10/30 03:56:54;;;;;;;4.30;1.67;;;;;;;19.16;51.06;97345.38;5094862;28;20016;-44
2023/10/30 03:59:20;;;;;;;10.20;1.70;;;;;;;19.42;51.11;97342.28;5094820;28;20486;-44
2023/10/30 04:01:45;;;;;;;10.23;1.77;;;;;;;19.65;50.73;97346.69;5093509;28;20036;-44
2023/10/30 04:04:11;;;;;;;9.45;1.73;;;;;;;19.71;50.90;97339.44;5094788;28;20027;-45
2023/10/30 04:06:37;;;;;;;6.28;1.30;;;;;;;19.86;50.36;97346.38;5094741;28;20032;-44
2023/10/30 04:09:05;;;;;;;5.97;1.70;;;;;;;19.91;50.35;97339.09;5094678;28;20438;-44
2023/10/30 04:11:30;;;;;;;5.85;1.40;;;;;;;20.11;50.67;97337.91;5094647;28;20099;-45
2023/10/30 04:13:56;;;;;;;9.93;2.20;;;;;;;20.45;49.62;97339.41;5094289;28;20185;-45
2023/10/30 04:16:22;;;;;;;6.80;1.60;;;;;;;20.48;49.34;97341.47;5094589;28;20024;-44
2023/10/30 04:18:48;;;;;;;6.53;1.50;;;;;;;20.32;49.29;97335.66;5094528;28;20405;-45
2023/10/30 04:21:14;;;;;;;8.38;2.17;;;;;;;20.17;49.12;97325.31;5093422;28;20031;-45
2023/10/30 04:23:42;;;;;;;6.85;1.52;;;;;;;19.97;49.64;97331.03;5094457;28;20024;-45
2023/10/30 04:26:08;;;;;;;7.82;1.77;;;;;;;19.87;50.61;97324.78;5094332;28;20397;-44
2023/10/30 04:28:34;;;;;;;9.25;1.45;;;;;;;20.09;50.37;97318.78;5093032;28;20032;-44
2023/10/30 04:31:00;;;;;;;5.57;1.48;;;;;;;20.25;50.51;97318.50;5094313;28;20020;-44
2023/10/30 04:33:26;;;;;;;9.30;2.05;;;;;;;20.15;50.88;97306.94;5094103;28;20059;-45
2023/10/30 04:35:53;;;;;;;8.35;1.90;;;;;;;20.11;50.96;97313.94;5092970;28;20048;-45
2023/10/30 04:38:21;;;;;;;13.75;1.75;;;;;;;20.28;51.14;97309.91;5094091;28;20020;-44
2023/10/30 04:40:46;;;;;;;9.80;1.65;;;;;;;20.45;51.11;97303.97;5094112;28;20485;-45
2023/10/30 04:43:12;;;;;;;14.23;1.83;;;;;;;20.52;50.12;97294.50;5094040;28;20024;-44
2023/10/30 04:45:38;;;;;;;8.15;1.88;;;;;;;20.58;50.77;97299.69;5094241;28;20081;-45
2023/10/30 04:48:04;;;;;;;5.32;1.40;;;;;;;20.92;49.98;97305.34;5092718;28;20047;-44
2023/10/30 04:50:30;;;;;;;7.03;1.60;;;;;;;20.91;49.44;97303.00;5092621;28;20024;-44
2023/10/30 04:52:56;;;;;;;17.17;9.38;;;;;;;20.78;50.32;97295.81;5075797;28;20088;-44
2023/10/30 04:55:21;;;;;;;4.82;2.65;;;;;;;20.65;50.17;97292.91;5093877;28;20027;-44
2023/10/30 04:57:47;;;;;;;6.80;2.05;;;;;;;20.46;50.61;97301.00;5093749;28;20089;-45
2023/10/30 05:00:13;;;;;;;8.10;1.83;;;;;;;20.21;50.56;97294.31;5092391;28;20031;-44
2023/10/30 05:02:39;;;;;;;9.13;4.97;;;;;;;19.87;51.82;97292.06;5092416;28;20028;-44
2023/10/30 05:05:05;;;;;;;7.93;1.92;;;;;;;20.07;51.90;97282.88;5093634;28;20059;-44
2023/10/30 05:07:31;;;;;;;6.38;1.52;;;;;;;20.12;51.21;97291.56;5093659;28;20035;-44
2023/10/30 05:09:56;;;;;;;7.45;1.65;;;;;;;19.86;51.66;97287.78;5093527;28;20052;-44
2023/10/30 05:12:22;;;;;;;8.52;2.38;;;;;;;20.05;52.36;97280.50;5093511;28;20020;-44
2023/10/30 05:14:48;;;;;;;7.00;1.88;;;;;;;20.19;52.45;97283.16;5093295;28;20048;-45
2023/10/30 05:17:13;;;;;;;9.32;2.10;;;;;;;20.64;51.72;97269.19;5093295;28;20443;-44
2023/10/30 05:19:39;;;;;;;4.55;1.48;;;;;;;21.00;50.25;97268.38;5092333;28;20490;-44
2023/10/30 05:22:05;;;;;;;9.05;2.10;;;;;;;21.01;49.71;97265.44;5093309;28;20020;-45
2023/10/30 05:24:31;;;;;;;6.30;1.58;;;;;;;20.71;50.12;97250.94;5093231;28;20035;-45
2023/10/30 05:26:56;;;;;;;8.70;1.80;;;;;;;20.34;50.72;97256.22;5091850;28;20502;-44
2023/10/30 05:29:22;;;;;;;11.52;2.03;;;;;;;20.14;51.93;97257.44;5093210;28;20028;-44
2023/10/30 05:31:48;;;;;;;12.63;2.85;;;;;;;20.17;52.24;97264.03;5093106;28;20550;-44
2023/10/30 05:34:14;;;;;;;7.32;1.42;;;;;;;20.73;51.72;97254.84;5093129;28;20031;-45
2023/10/30 05:36:39;;;;;;;4.10;1.55;;;;;;;20.79;50.87;97266.22;5092904;28;20133;-45
2023/10/30 05:39:06;;;;;;;11.77;1.98;;;;;;;20.52;51.14;97251.84;5092957;28;20385;-45
2023/10/30 05:41:32;;;;;;;7.00;1.42;;;;;;;20.43;52.01;97234.19;5092972;28;20020;-44
2023/10/30 05:43:57;;;;;;;4.38;1.58;;;;;;;20.38;52.26;97234.28;5091643;28;20039;-45
2023/10/30 05:46:23;;;;;;;5.07;1.50;;;;;;;20.14;52.26;97230.81;5092453;28;20375;-45
2023/10/30 05:48:49;;;;;;;9.57;2.78;;;;;;;19.87;53.36;97218.28;5092834;28;20020;-44
2023/10/30 05:51:14;;;;;;;6.85;1.80;;;;;;;19.93;54.26;97226.97;5091437;28;20032;-44
2023/10/30 05:53:42;;;;;;;9.00;1.60;;;;;;;19.98;53.96;97226.06;5091384;28;20508;-44
2023/10/30 05:56:07;;;;;;;4.90;1.88;;;;;;;19.78;54.70;97225.41;5091253;28;20016;-44
2023/10/30 05:58:34;;;;;;;4.43;1.70;;;;;;;19.63;55.46;97220.31;5092621;28;20115;-45
2023/10/30 06:00:59;;;;;;;6.47;1.30;;;;;;;19.62;56.25;97219.53;5092544;28;20089;-44
2023/10/30 06:03:25;;;;;;;4.85;1.60;;;;;;;19.59;56.52;97212.13;5092630;28;20023;-44
2023/10/30 06:05:51;;;;;;;4.45;1.38;;;;;;;19.47;57.01;97214.50;5092401;28;20036;-44
2023/10/30 06:08:22;;;;;;;9.38;2.13;;;;;;;19.47;57.40;97211.84;5092473;28;20402;-44
2023/10/30 06:10:47;;;;;;;7.13;1.80;;;;;;;19.53;57.61;97205.34;5092492;28;20052;-44
2023/10/30 06:13:13;;;;;;;9.00;1.98;;;;;;;19.65;57.86;97212.84;5091067;28;20124;-45
2023/10/30 06:15:39;;;;;;;5.18;1.20;;;;;;;19.63;58.01;97215.78;5092097;28;20052;-44
2023/10/30 06:18:05;;;;;;;6.32;2.30;;;;;;;19.52;58.38;97204.56;5092309;28;20081;-44
2023/10/30 06:20:31;;;;;;;7.10;1.77;;;;;;;19.50;58.65;97220.03;5092242;28;20410;-45
2023/10/30 06:22:57;;;;;;;8.15;2.08;;;;;;;19.60;59.13;97210.25;5092250;28;20528;-45
2023/10/30 06:25:26;;;;;;;7.82;2.00;;;;;;;19.63;59.04;97205.16;5090828;28;20107;-45
2023/10/30 06:27:53;;;;;;;4.88;2.22;;;;;;;19.61;59.49;97209.97;5092127;28;20069;-45
2023/10/30 06:30:19;;;;;;;9.82;1.60;;;;;;;19.67;59.44;97176.84;5092024;28;20095;-45
2023/10/30 06:32:45;;;;;;;8.48;1.85;;;;;;;19.59;59.74;97198.06;5092147;28;20077;-46
2023/10/30 06:35:11;;;;;;;7.10;1.65;;;;;;;19.53;60.04;97190.16;5074185;28;20024;-46
2023/10/30 06:37:36;;;;;;;4.82;1.40;;;;;;;19.61;60.13;97191.34;5090608;28;20024;-46
2023/10/30 06:40:05;;;;;;;14.35;2.47;;;;;;;19.59;60.67;97182.09;5091944;28;20024;-46
2023/10/30 06:42:31;;;;;;;10.77;1.90;;;;;;;19.63;60.68;97183.84;5091967;28;20055;-46
2023/10/30 06:44:57;;;;;;;8.38;2.30;;;;;;;19.55;60.87;97181.88;5091856;28;20048;-46
2023/10/30 06:47:22;;;;;;;8.05;2.25;;;;;;;19.69;61.20;97172.03;5090592;28;20032;-46
2023/10/30 06:49:48;;;;;;;7.10;1.70;;;;;;;19.75;60.95;97173.53;5090586;28;20028;-46
2023/10/30 06:52:14;;;;;;;7.57;1.45;;;;;;;19.62;61.11;97182.28;5091814;28;20024;-46
2023/10/30 06:54:39;;;;;;;7.93;2.13;;;;;;;19.64;61.51;97185.44;5091797;28;20020;-47
2023/10/30 06:57:05;;;;;;;4.60;1.83;;;;;;;19.61;61.62;97172.72;5091711;28;20034;-46
2023/10/30 06:59:31;;;;;;;5.05;2.00;;;;;;;19.51;62.33;97187.00;5094439;28;20023;-46
2023/10/30 07:01:57;;;;;;;4.13;1.25;;;;;;;19.53;62.57;97179.50;5094679;28;20490;-46
2023/10/30 07:04:22;;;;;;;6.10;1.55;;;;;;;19.56;62.49;97186.13;5095913;28;20525;-46
2023/10/30 07:06:50;;;;;;;8.32;1.95;;;;;;;19.81;62.21;97176.09;5095866;28;20024;-46
2023/10/30 07:09:17;;;;;;;7.22;1.95;;;;;;;19.85;62.10;97182.41;5094728;28;20450;-46
2023/10/30 07:11:43;;;;;;;10.57;2.15;;;;;;;19.89;62.17;97197.47;5096085;28;20055;-46
2023/10/30 07:14:09;;;;;;;9.27;2.20;;;;;;;19.98;61.79;97194.09;5094219;28;20509;-46
2023/10/30 07:16:35;;;;;;;7.57;1.77;;;;;;;19.93;61.78;97195.00;5095679;28;20058;-46
2023/10/30 07:19:02;;;;;;;8.07;1.67;;;;;;;19.80;61.87;97199.28;5095646;28;20035;-46
2023/10/30 07:21:29;;;;;;;3.85;1.52;;;;;;;19.74;62.13;97195.13;5095663;28;20118;-46
2023/10/30 07:23:55;;;;;;;7.10;2.03;;;;;;;19.62;62.66;97202.78;5095592;28;20024;-46
2023/10/30 07:26:21;;;;;;;12.30;2.20;;;;;;;19.48;63.45;97206.22;5095599;28;20140;-46
2023/10/30 07:28:51;;;;;;;4.70;1.45;;;;;;;19.40;63.67;97193.63;5094203;28;20024;-46
2023/10/30 07:31:18;;;;;;;10.38;1.90;;;;;;;19.40;64.10;97187.47;5095445;28;20028;-46
2023/10/30 07:33:45;;;;;;;10.10;2.03;;;;;;;19.42;64.47;97193.28;5095385;28;20025;-46
2023/10/30 07:36:10;;;;;;;11.75;2.45;;;;;;;19.47;64.41;97174.59;5095228;28;20020;-46
2023/10/30 07:38:36;;;;;;;6.70;1.75;;;;;;;19.68;64.30;97198.94;5095632;28;20039;-46
2023/10/30 07:41:03;;;;;;;7.38;2.10;;;;;;;19.80;63.95;97172.66;5095223;28;20555;-46
2023/10/30 07:43:29;;;;;;;8.52;2.35;;;;;;;19.79;63.72;97181.72;5095185;28;20020;-46
2023/10/30 07:45:55;;;;;;;9.35;1.80;;;;;;;19.94;63.76;97189.41;5093823;28;20020;-46
2023/10/30 07:48:20;;;;;;;9.02;2.42;;;;;;;19.92;63.66;97180.91;5093965;28;20028;-46
2023/10/30 07:50:47;;;;;;;6.47;1.88;;;;;;;19.93;63.51;97184.34;5095070;28;20051;-46
2023/10/30 07:53:14;;;;;;;8.25;1.80;;;;;;;19.79;63.64;97176.38;5095039;28;20547;-46
2023/10/30 07:55:40;;;;;;;8.57;3.65;;;;;;;19.69;64.21;97190.66;5093830;28;20020;-46
2023/10/30 07:58:06;;;;;;;8.95;3.83;;;;;;;19.65;64.63;97196.88;5094811;28;20535;-46
2023/10/30 08:00:33;;;;;;;14.65;9.90;;;;;;;19.62;64.90;97192.13;5094905;28;20024;-46
2023/10/30 08:03:00;;;;;;;8.68;3.33;;;;;;;19.69;65.16;97188.00;5094913;28;20047;-46
2023/10/30 08:05:26;;;;;;;9.18;3.88;;;;;;;19.74;64.74;97179.94;5093596;28;20020;-46
2023/10/30 08:07:52;;;;;;;7.20;2.00;;;;;;;19.73;64.93;97185.56;5094744;28;20516;-46
2023/10/30 08:10:18;;;;;;;7.00;1.83;;;;;;;19.72;64.95;97178.69;5094454;28;20102;-46
2023/10/30 08:12:43;;;;;;;6.32;2.10;;;;;;;19.72;65.24;97182.13;5094656;28;20137;-46
2023/10/30 08:15:09;;;;;;;11.73;3.30;;;;;;;19.78;65.37;97166.03;5094366;28;20076;-45
2023/10/30 08:17:36;;;;;;;4.57;1.70;;;;;;;19.90;64.93;97172.44;5076532;28;20077;-46
2023/10/30 08:20:03;;;;;;;10.13;1.80;;;;;;;19.90;64.88;97172.44;5094499;28;20393;-46
2023/10/30 08:22:30;;;;;;;8.20;2.22;;;;;;;20.00;64.71;97171.44;5094481;28;20085;-46
2023/10/30 08:24:55;;;;;;;6.45;1.73;;;;;;;20.10;64.25;97183.72;5094403;28;20024;-46
2023/10/30 08:27:21;;;;;;;14.32;3.13;;;;;;;20.06;63.91;97185.41;5094407;28;20394;-46
2023/10/30 08:29:47;;;;;;;6.97;2.58;;;;;;;20.01;64.38;97183.66;5094338;28;20360;-46
2023/10/30 08:32:13;;;;;;;6.40;1.80;;;;;;;20.10;64.53;97168.56;5094240;28;20020;-46
2023/10/30 08:34:39;;;;;;;9.13;2.80;;;;;;;20.33;63.59;97174.69;5094313;28;20024;-46
2023/10/30 08:37:05;;;;;;;13.60;2.70;;;;;;;20.35;63.79;97163.75;5094113;28;20028;-46
2023/10/30 08:39:30;;;;;;;10.23;4.28;;;;;;;20.38;63.51;97160.47;5092836;28;20035;-46
2023/10/30 08:41:56;;;;;;;12.45;3.03;;;;;;;20.31;63.29;97160.88;5092896;28;20031;-46
2023/10/30 08:44:22;;;;;;;13.60;3.30;;;;;;;20.18;63.86;97158.25;5094070;28;20500;-46
2023/10/30 08:46:48;;;;;;;27.92;7.13;;;;;;;20.11;64.38;97167.47;5092809;28;20036;-46
2023/10/30 08:49:14;;;;;;;15.65;3.10;;;;;;;20.18;64.03;97159.03;5092692;28;20063;-46
2023/10/30 08:51:43;;;;;;;10.02;2.38;;;;;;;20.18;64.35;97169.69;5093949;28;20024;-46
2023/10/30 08:54:09;;;;;;;9.57;2.75;;;;;;;20.15;64.23;97162.31;5092617;28;20074;-46
2023/10/30 08:56:39;;;;;;;13.65;2.35;;;;;;;20.15;64.47;97160.44;5093725;28;20024;-46
2023/10/30 08:59:06;;;;;;;6.07;1.95;;;;;;;20.22;63.88;97148.59;5093810;28;20093;-46
2023/10/30 09:01:32;;;;;;;12.75;3.08;;;;;;;20.24;64.24;97146.41;5094009;28;20071;-46
2023/10/30 09:03:58;;;;;;;13.50;2.97;;;;;;;20.33;64.31;97144.63;5092368;28;20038;-46
2023/10/30 09:06:24;;;;;;;7.07;1.92;;;;;;;20.42;63.81;97134.78;5093668;28;20476;-46
2023/10/30 09:08:50;;;;;;;48.38;3.63;;;;;;;20.56;63.66;97140.06;5093547;28;20035;-46
2023/10/30 09:11:15;;;;;;;12.10;2.55;;;;;;;20.71;63.37;97142.41;5093543;28;20020;-46
2023/10/30 09:13:41;;;;;;;6.53;2.28;;;;;;;20.81;62.90;97130.69;5093249;28;20077;-47
2023/10/30 09:16:08;;;;;;;7.50;1.85;;;;;;;20.85;62.31;97120.22;5093392;28;20119;-46
2023/10/30 09:18:34;;;;;;;5.90;1.70;;;;;;;20.86;62.21;97127.13;5093429;28;20032;-46
2023/10/30 09:21:00;;;;;;;5.20;1.92;;;;;;;20.79;62.16;97127.56;5092648;28;20020;-46
2023/10/30 09:23:26;;;;;;;4.10;1.73;;;;;;;20.70;62.45;97124.03;5093375;28;20104;-46
2023/10/30 09:25:51;;;;;;;6.45;1.95;;;;;;;20.58;62.58;97121.88;5093235;28;20123;-46
2023/10/30 09:28:18;;;;;;;5.85;1.83;;;;;;;20.51;63.30;97125.00;5091950;28;20039;-46
2023/10/30 09:30:44;;;;;;;7.30;1.88;;;;;;;20.43;63.15;97135.59;5093133;28;20031;-46
2023/10/30 09:33:10;;;;;;;5.03;1.65;;;;;;;20.30;64.24;97134.53;5091872;28;20024;-46
2023/10/30 09:35:37;;;;;;;11.75;3.15;;;;;;;20.12;64.67;97137.09;5091773;28;20124;-46
2023/10/30 09:38:04;;;;;;;11.00;3.20;;;;;;;20.00;65.31;97139.50;5091676;28;20062;-46
2023/10/30 09:40:30;;;;;;;14.73;2.88;;;;;;;19.97;65.78;97139.28;5092968;28;20028;-46
2023/10/30 09:42:56;;;;;;;6.15;1.90;;;;;;;19.92;65.99;97135.66;5091722;28;20024;-46
2023/10/30 09:45:24;;;;;;;12.13;4.00;;;;;;;19.91;66.12;97141.28;5092895;28;20501;-46
2023/10/30 09:47:54;;;;;;;8.82;2.63;;;;;;;19.89;66.15;97124.81;5092839;28;20085;-46
2023/10/30 09:50:21;;;;;;;8.27;1.70;;;;;;;19.88;66.18;97117.88;5091616;28;20020;-46
2023/10/30 09:52:49;;;;;;;11.18;2.25;;;;;;;19.88;66.58;97116.03;5091514;28;20024;-46
2023/10/30 09:55:20;;;;;;;5.00;1.83;;;;;;;19.84;66.66;97115.06;5092723;28;20513;-46
2023/10/30 09:57:54;;;;;;;13.07;1.73;;;;;;;19.83;67.03;97112.69;5091475;28;20110;-46
2023/10/30 10:00:20;;;;;;;10.90;2.40;;;;;;;19.78;67.05;97110.94;5092635;28;20062;-46
2023/10/30 10:02:46;;;;;;;5.35;1.85;;;;;;;19.78;67.08;97113.59;5092640;28;20028;-46
2023/10/30 10:05:14;;;;;;;8.55;2.40;;;;;;;19.78;66.91;97107.47;5091319;28;20104;-46
2023/10/30 10:07:40;;;;;;;9.38;1.90;;;;;;;19.79;66.95;97101.84;5092430;28;20028;-46
2023/10/30 10:10:08;;;;;;;9.80;2.50;;;;;;;19.82;67.09;97108.44;5091244;28;20115;-46
2023/10/30 10:12:34;;;;;;;6.63;2.30;;;;;;;19.84;67.11;97115.06;5092402;28;20027;-46
2023/10/30 10:15:06;;;;;;;5.55;1.83;;;;;;;19.86;66.97;97094.25;5092184;28;20070;-46
2023/10/30 10:17:40;;;;;;;5.47;1.67;;;;;;;19.91;66.73;97104.00;5092294;28;20059;-46
2023/10/30 10:20:07;;;;;;;7.57;2.77;;;;;;;19.83;66.99;97108.16;5091071;28;20065;-46
2023/10/30 10:22:33;;;;;;;3.70;1.77;;;;;;;19.84;67.23;97115.06;5090929;28;20032;-46
2023/10/30 10:25:02;;;;;;;8.48;2.78;;;;;;;19.77;67.78;97111.22;5092273;28;20435;-46
2023/10/30 10:27:28;;;;;;;8.60;2.10;;;;;;;19.69;68.06;97097.50;5092165;28;20035;-46
2023/10/30 10:29:56;;;;;;;6.28;1.90;;;;;;;19.64;68.48;97104.78;5092134;28;20020;-46
2023/10/30 10:32:25;;;;;;;10.25;1.70;;;;;;;19.56;65.99;97108.97;5090760;28;20516;-47
2023/10/30 10:34:51;;;;;;;10.95;2.22;;;;;;;19.19;68.05;97105.41;5092057;28;20070;-46
2023/10/30 10:37:18;;;;;;;6.95;2.30;;;;;;;18.84;69.75;97107.63;5091951;28;20039;-46
2023/10/30 10:39:51;;;;;;;13.35;2.60;;;;;;;18.49;71.25;97115.09;5092080;28;20048;-45
2023/10/30 10:42:20;;;;;;;10.50;2.30;;;;;;;18.15;73.81;97118.81;5091966;28;20113;-45
2023/10/30 10:44:51;;;;;;;8.48;2.13;;;;;;;17.87;76.08;97107.25;5091881;28;20027;-45
2023/10/30 10:47:20;;;;;;;5.93;2.10;;;;;;;17.58;79.33;97109.97;5091945;28;20028;-45
2023/10/30 10:49:47;;;;;;;11.60;2.55;;;;;;;17.28;82.34;97111.13;5074251;28;20493;-47
2023/10/30 10:52:14;;;;;;;5.18;1.80;;;;;;;17.06;87.20;97101.00;5073876;28;20027;-47
2023/10/30 10:54:47;;;;;;;4.78;2.38;;;;;;;16.99;89.45;97103.22;5091902;28;20501;-46
2023/10/30 10:57:17;;;;;;;13.73;2.88;;;;;;;16.74;90.14;97078.50;5092333;28;20110;-46
2023/10/30 10:59:45;;;;;;;6.82;2.38;;;;;;;16.42;93.92;97085.16;5091881;28;20027;-45
2023/10/30 11:02:21;;;;;;;5.75;2.03;;;;;;;16.27;95.24;97078.13;5091775;28;20559;-45
2023/10/30 11:04:50;;;;;;;5.85;1.58;;;;;;;16.19;95.67;97081.34;5091772;28;20036;-45
2023/10/30 11:07:46;;;;;;;3.17;1.70;;;;;;;16.07;96.76;97063.16;5090392;28;20111;-45
2023/10/30 11:10:33;;;;;;;4.82;1.30;;;;;;;15.98;97.13;97062.97;5085852;28;20036;-45
2023/10/30 11:13:25;;;;;;;3.80;1.85;;;;;;;15.82;99.20;97048.28;5091978;28;20549;-45
2023/10/30 11:15:59;;;;;;;9.82;2.03;;;;;;;15.74;100.00;97057.56;5090485;28;20522;-45
2023/10/30 11:18:27;;;;;;;3.67;2.10;;;;;;;15.66;100.00;97055.47;5091721;28;20085;-46
2023/10/30 11:21:12;;;;;;;5.47;1.88;;;;;;;15.56;100.00;97045.75;5090259;28;20448;-46
2023/10/30 11:23:44;;;;;;;;;;;;;;;15.48;100.00;97066.69;5091970;28;20028;-45
2023/10/30 11:26:10;;;;;;;4.30;1.60;;;;;;;15.43;100.00;97091.25;5091544;28;19912;-45
2023/10/30 11:28:37;;;;;;;4.43;1.65;;;;;;;15.40;100.00;97070.69;5090190;28;20024;-45